createdAt,value
2022-08-07T00:00:15.412Z,99490.59
2022-08-07T00:03:04.234Z,99483.84
2022-08-07T00:05:32.411Z,99486.63
2022-08-07T00:08:04.907Z,99485.66
2022-08-07T00:10:32.546Z,99485.66
2022-08-07T00:13:24.074Z,99469.75
2022-08-07T00:15:52.884Z,99484.06
2022-08-07T00:18:27.881Z,99481.59
2022-08-07T00:21:08.121Z,99484.69
2022-08-07T00:23:52.082Z,99477.91
2022-08-07T00:26:49.121Z,99478.31
2022-08-07T00:29:06.111Z,99481.59
2022-08-07T00:31:37.954Z,99479.97
2022-08-07T00:34:09.662Z,99481.97
2022-08-07T00:36:42.944Z,99481.31
2022-08-07T00:39:16.251Z,99471.78
2022-08-07T00:41:53.655Z,99484.00
2022-08-07T00:44:28.110Z,99483.34
2022-08-07T00:46:55.482Z,99476.47
2022-08-07T00:49:24.899Z,99468.72
2022-08-07T00:52:10.579Z,99476.75
2022-08-07T00:54:40.804Z,99470.53
2022-08-07T00:57:10.072Z,99468.06
2022-08-07T00:59:39.602Z,99473.78
2022-08-07T01:02:13.935Z,99471.31
2022-08-07T01:04:58.360Z,99470.75
2022-08-07T01:07:28.641Z,99469.44
2022-08-07T01:10:04.708Z,99469.63
2022-08-07T01:12:36.638Z,99473.34
2022-08-07T01:15:07.179Z,99465.63
2022-08-07T01:17:40.025Z,99471.06
2022-08-07T01:20:16.717Z,99470.22
2022-08-07T01:22:47.032Z,99469.53
2022-08-07T01:25:53.645Z,99474.97
2022-08-07T01:28:22.163Z,99471.66
2022-08-07T01:30:51.208Z,99472.88
2022-08-07T01:33:19.265Z,99470.50
2022-08-07T01:35:53.302Z,99468.97
2022-08-07T01:38:25.038Z,99467.25
2022-08-07T01:40:59.533Z,99473.44
2022-08-07T01:43:34.591Z,99469.94
2022-08-07T01:46:05.578Z,99476.31
2022-08-07T01:48:35.812Z,99472.88
2022-08-07T01:52:00.916Z,99472.22
2022-08-07T01:54:12.475Z,99478.75
2022-08-07T01:56:56.567Z,99479.91
2022-08-07T01:59:43.765Z,99474.75
2022-08-07T02:02:32.803Z,99490.88
2022-08-07T02:05:43.361Z,99485.78
2022-08-07T02:08:14.754Z,99475.13
2022-08-07T02:10:44.702Z,99479.69
2022-08-07T02:13:27.644Z,99479.69
2022-08-07T02:16:14.887Z,99473.75
2022-08-07T02:18:47.075Z,99472.16
2022-08-07T02:21:17.357Z,99464.59
2022-08-07T02:23:47.725Z,99464.50
2022-08-07T02:26:32.313Z,99464.31
2022-08-07T02:29:05.032Z,99474.31
2022-08-07T02:31:34.589Z,99467.53
2022-08-07T02:34:11.682Z,99470.97
2022-08-07T02:36:46.153Z,99468.66
2022-08-07T02:39:43.403Z,99472.34
2022-08-07T02:42:10.278Z,99469.69
2022-08-07T02:44:48.057Z,99472.19
2022-08-07T02:47:19.495Z,99474.19
2022-08-07T02:49:58.784Z,99465.50
2022-08-07T02:52:37.272Z,99470.06
2022-08-07T02:55:27.623Z,99475.50
2022-08-07T02:58:03.079Z,99471.09
2022-08-07T03:00:36.069Z,99468.53
2022-08-07T03:03:13.531Z,99465.94
2022-08-07T03:05:54.346Z,99468.72
2022-08-07T03:08:29.089Z,99471.41
2022-08-07T03:10:57.942Z,99471.47
2022-08-07T03:13:25.566Z,99472.25
2022-08-07T03:15:58.695Z,99461.75
2022-08-07T03:18:34.991Z,99467.09
2022-08-07T03:21:08.261Z,99467.19
2022-08-07T03:24:20.022Z,99459.09
2022-08-07T03:26:32.577Z,99467.09
2022-08-07T03:29:03.973Z,99467.25
2022-08-07T03:31:43.378Z,99467.09
2022-08-07T03:34:18.783Z,99471.47
2022-08-07T03:36:53.277Z,99469.84
2022-08-07T03:39:46.069Z,99465.47
2022-08-07T03:42:12.662Z,99470.03
2022-08-07T03:44:40.487Z,99468.50
2022-08-07T03:47:13.330Z,99477.59
2022-08-07T03:49:49.916Z,99470.56
2022-08-07T03:52:26.657Z,99467.06
2022-08-07T03:55:06.593Z,99466.25
2022-08-07T03:58:34.082Z,99475.31
2022-08-07T04:00:30.190Z,99467.22
2022-08-07T04:02:59.635Z,99477.97
2022-08-07T04:05:40.666Z,99474.53
2022-08-07T04:08:16.180Z,99477.00
2022-08-07T04:10:54.163Z,99464.47
2022-08-07T04:14:09.459Z,99466.94
2022-08-07T04:16:31.107Z,99470.66
2022-08-07T04:19:12.409Z,99487.50
2022-08-07T04:21:58.748Z,99480.47
2022-08-07T04:24:34.215Z,99479.69
2022-08-07T04:27:06.058Z,99477.09
2022-08-07T04:29:58.622Z,99493.88
2022-08-07T04:32:34.396Z,99481.56
2022-08-07T04:35:06.306Z,99486.75
2022-08-07T04:37:52.945Z,99477.50
2022-08-07T04:40:29.672Z,99480.97
2022-08-07T04:43:01.260Z,99490.06
2022-08-07T04:46:02.399Z,99485.97
2022-08-07T04:49:03.430Z,99488.13
2022-08-07T04:51:56.130Z,99491.81
2022-08-07T04:54:58.180Z,99493.22
2022-08-07T04:58:26.157Z,99486.75
2022-08-07T05:00:47.605Z,99497.06
2022-08-07T05:03:38.755Z,99495.06
2022-08-07T05:06:19.972Z,99507.09
2022-08-07T05:09:08.420Z,99493.66
2022-08-07T05:11:56.892Z,99492.34
2022-08-07T05:14:55.621Z,99506.19
2022-08-07T05:17:50.938Z,99503.16
2022-08-07T05:20:25.702Z,99511.84
2022-08-07T05:22:59.676Z,99499.00
2022-08-07T05:25:37.420Z,99506.56
2022-08-07T05:28:22.725Z,99507.06
2022-08-07T05:30:54.348Z,99516.34
2022-08-07T05:33:23.578Z,99507.94
2022-08-07T05:35:55.390Z,99508.63
2022-08-07T05:39:01.013Z,99504.81
2022-08-07T05:41:16.625Z,99514.66
2022-08-07T05:44:12.023Z,99515.13
2022-08-07T05:46:42.891Z,99514.63
2022-08-07T05:49:14.583Z,99520.38
2022-08-07T05:51:46.409Z,99518.47
2022-08-07T05:54:31.289Z,99517.78
2022-08-07T05:57:06.319Z,99520.75
2022-08-07T05:59:57.449Z,99521.59
2022-08-07T06:02:30.724Z,99509.09
2022-08-07T06:05:10.893Z,99514.09
2022-08-07T06:08:13.854Z,99521.72
2022-08-07T06:10:32.262Z,99517.69
2022-08-07T06:13:03.376Z,99517.50
2022-08-07T06:15:41.884Z,99512.06
2022-08-07T06:18:14.120Z,99510.78
2022-08-07T06:20:50.228Z,99514.41
2022-08-07T06:24:37.638Z,99507.38
2022-08-07T06:26:20.133Z,99520.63
2022-08-07T06:28:54.315Z,99509.94
2022-08-07T06:31:24.306Z,99509.44
2022-08-07T06:34:09.659Z,99514.50
2022-08-07T06:36:40.451Z,99508.06
2022-08-07T06:40:16.274Z,99508.41
2022-08-07T06:42:07.824Z,99511.84
2022-08-07T06:44:39.906Z,99516.06
2022-08-07T06:47:10.222Z,99506.94
2022-08-07T06:49:52.322Z,99510.84
2022-08-07T06:52:36.451Z,99512.34
2022-08-07T06:55:32.586Z,99505.72
2022-08-07T06:58:14.518Z,99518.66
2022-08-07T07:00:45.975Z,99512.25
2022-08-07T07:03:17.128Z,99509.28
2022-08-07T07:06:02.839Z,99515.28
2022-08-07T07:08:33.817Z,99507.06
2022-08-07T07:11:13.829Z,99517.53
2022-08-07T07:13:58.715Z,99511.13
2022-08-07T07:16:44.997Z,99514.66
2022-08-07T07:19:56.553Z,99515.97
2022-08-07T07:22:37.049Z,99514.72
2022-08-07T07:25:14.240Z,99509.38
2022-08-07T07:28:29.614Z,99513.22
2022-08-07T07:31:21.571Z,99499.34
2022-08-07T07:33:57.190Z,99510.59
2022-08-07T07:36:29.643Z,99505.88
2022-08-07T07:39:04.380Z,99498.69
2022-08-07T07:42:01.884Z,99495.69
2022-08-07T07:44:26.562Z,99494.59
2022-08-07T07:47:04.296Z,99495.25
2022-08-07T07:50:33.944Z,99496.13
2022-08-07T07:52:37.601Z,99499.56
2022-08-07T07:55:09.380Z,99498.59
2022-08-07T07:57:51.862Z,99499.97
2022-08-07T08:00:29.690Z,99486.13
2022-08-07T08:03:08.506Z,99488.28
2022-08-07T08:05:50.797Z,99491.59
2022-08-07T08:08:34.835Z,99485.91
2022-08-07T08:11:13.498Z,99493.63
2022-08-07T08:13:54.996Z,99486.97
2022-08-07T08:16:38.028Z,99487.63
2022-08-07T08:19:17.666Z,99487.00
2022-08-07T08:22:17.376Z,99479.59
2022-08-07T08:25:18.963Z,99482.78
2022-08-07T08:28:03.668Z,99486.00
2022-08-07T08:30:42.481Z,99486.50
2022-08-07T08:33:17.026Z,99483.50
2022-08-07T08:35:49.890Z,99482.06
2022-08-07T08:38:29.573Z,99486.00
2022-08-07T08:41:11.989Z,99491.88
2022-08-07T08:44:08.636Z,99485.44
2022-08-07T08:46:49.191Z,99485.56
2022-08-07T08:50:02.517Z,99482.28
2022-08-07T08:53:01.005Z,99485.72
2022-08-07T08:56:12.079Z,99473.78
2022-08-07T08:59:12.856Z,99476.88
2022-08-07T09:01:53.488Z,99482.13
2022-08-07T09:04:46.924Z,99477.72
2022-08-07T09:07:46.521Z,99470.06
2022-08-07T09:10:34.110Z,99473.69
2022-08-07T09:13:14.750Z,99474.91
2022-08-07T09:16:24.458Z,99470.56
2022-08-07T09:19:52.744Z,99464.50
2022-08-07T09:24:33.849Z,99460.59
2022-08-07T09:25:55.192Z,99455.38
2022-08-07T09:30:02.217Z,99453.66
2022-08-07T09:31:48.410Z,99450.63
2022-08-07T09:34:57.752Z,99441.34
2022-08-07T09:37:48.505Z,99444.50
2022-08-07T09:40:37.952Z,99446.34
2022-08-07T09:44:10.327Z,99445.16
2022-08-07T09:47:50.209Z,99439.56
2022-08-07T09:50:30.726Z,99431.97
2022-08-07T09:53:07.353Z,99435.25
2022-08-07T09:56:13.858Z,99422.44
2022-08-07T09:59:13.853Z,99432.69
2022-08-07T10:02:01.646Z,99425.56
2022-08-07T10:04:57.136Z,99426.19
2022-08-07T10:08:02.470Z,99429.09
2022-08-07T10:11:16.721Z,99425.94
2022-08-07T10:14:01.744Z,99418.00
2022-08-07T10:17:20.125Z,99422.25
2022-08-07T10:20:30.463Z,99415.13
2022-08-07T10:24:04.830Z,99413.69
2022-08-07T10:27:19.206Z,99397.25
2022-08-07T10:30:13.290Z,99405.22
2022-08-07T10:33:08.531Z,99402.00
2022-08-07T10:36:29.309Z,99389.81
2022-08-07T10:39:18.632Z,99392.16
2022-08-07T10:42:09.690Z,99380.63
2022-08-07T10:45:01.342Z,99389.53
2022-08-07T10:48:09.703Z,99376.75
2022-08-07T10:50:50.956Z,99376.88
2022-08-07T10:53:25.080Z,99370.34
2022-08-07T10:56:20.790Z,99379.91
2022-08-07T10:59:38.429Z,99371.03
2022-08-07T11:02:49.423Z,99370.06
2022-08-07T11:05:49.063Z,99364.34
2022-08-07T11:08:58.660Z,99364.97
2022-08-07T11:11:39.613Z,99364.47
2022-08-07T11:14:44.102Z,99352.75
2022-08-07T11:17:45.154Z,99349.03
2022-08-07T11:20:24.881Z,99347.53
2022-08-07T11:23:20.772Z,99342.69
2022-08-07T11:26:33.737Z,99343.16
2022-08-07T11:29:42.712Z,99334.63
2022-08-07T11:32:29.157Z,99330.94
2022-08-07T11:35:03.849Z,99328.84
2022-08-07T11:38:10.324Z,99329.44
2022-08-07T11:41:02.148Z,99331.03
2022-08-07T11:44:12.682Z,99323.91
2022-08-07T11:47:13.826Z,99313.47
2022-08-07T11:50:31.508Z,99315.50
2022-08-07T11:53:21.889Z,99307.91
2022-08-07T11:56:34.441Z,99309.47
2022-08-07T12:00:12.225Z,99311.81
2022-08-07T12:02:40.421Z,99298.66
2022-08-07T12:06:37.980Z,99299.94
2022-08-07T12:09:01.730Z,99288.19
2022-08-07T12:12:10.267Z,99297.81
2022-08-07T12:15:35.771Z,99291.16
2022-08-07T12:18:32.911Z,99293.03
2022-08-07T12:22:35.854Z,99300.81
2022-08-07T12:26:06.139Z,99290.34
2022-08-07T12:28:57.872Z,99287.09
2022-08-07T12:31:52.755Z,99290.44
2022-08-07T12:34:39.453Z,99284.66
2022-08-07T12:37:17.011Z,99285.09
2022-08-07T12:39:55.534Z,99287.25
2022-08-07T12:42:31.917Z,99288.81
2022-08-07T12:45:11.979Z,99281.28
2022-08-07T12:48:28.232Z,99277.19
2022-08-07T12:51:17.634Z,99275.91
2022-08-07T12:54:03.036Z,99268.56
2022-08-07T12:56:55.061Z,99260.72
2022-08-07T12:59:33.324Z,99263.00
2022-08-07T13:02:52.706Z,99252.81
2022-08-07T13:06:17.033Z,99245.97
2022-08-07T13:10:11.000Z,99247.56
2022-08-07T13:12:50.612Z,99250.09
2022-08-07T13:15:59.019Z,99239.75
2022-08-07T13:18:44.685Z,99237.22
2022-08-07T13:21:51.099Z,99241.06
2022-08-07T13:24:30.778Z,99245.19
2022-08-07T13:27:12.903Z,99234.81
2022-08-07T13:30:03.998Z,99227.44
2022-08-07T13:34:32.092Z,99218.09
2022-08-07T13:36:25.772Z,99220.78
2022-08-07T13:39:11.174Z,99211.09
2022-08-07T13:41:57.420Z,99211.81
2022-08-07T13:44:34.548Z,99212.28
2022-08-07T13:47:09.439Z,99206.88
2022-08-07T13:50:33.730Z,99207.28
2022-08-07T13:52:41.419Z,99213.09
2022-08-07T13:55:26.405Z,99212.78
2022-08-07T13:58:31.743Z,99203.56
2022-08-07T14:01:09.009Z,99199.47
2022-08-07T14:04:06.836Z,99191.06
2022-08-07T14:06:39.009Z,99190.22
2022-08-07T14:09:17.020Z,99189.25
2022-08-07T14:12:10.494Z,99186.97
2022-08-07T14:14:54.573Z,99185.81
2022-08-07T14:18:13.169Z,99179.69
2022-08-07T14:20:42.284Z,99183.25
2022-08-07T14:23:58.672Z,99181.84
2022-08-07T14:26:29.808Z,99179.00
2022-08-07T14:29:08.902Z,99177.84
2022-08-07T14:31:55.951Z,99182.97
2022-08-07T14:34:29.934Z,99176.28
2022-08-07T14:37:07.724Z,99174.00
2022-08-07T14:40:17.031Z,99169.84
2022-08-07T14:43:01.399Z,99172.81
2022-08-07T14:45:46.938Z,99173.38
2022-08-07T14:48:21.056Z,99170.13
2022-08-07T14:50:53.926Z,99165.84
2022-08-07T14:54:03.679Z,99165.13
2022-08-07T14:56:29.481Z,99167.53
2022-08-07T15:01:52.316Z,99166.66
2022-08-07T15:04:25.040Z,99160.56
2022-08-07T15:06:53.286Z,99157.88
2022-08-07T15:09:58.351Z,99159.59
2022-08-07T15:18:14.139Z,99156.97
2022-08-07T15:25:13.966Z,99155.25
2022-08-07T15:26:51.824Z,99156.91
2022-08-07T15:32:13.296Z,99156.03
2022-08-07T15:34:50.619Z,99153.47
2022-08-07T15:37:28.875Z,99146.63
2022-08-07T15:40:34.573Z,99139.06
2022-08-07T15:43:53.116Z,99144.47
2022-08-07T15:46:37.655Z,99150.63
2022-08-07T15:49:15.226Z,99144.84
2022-08-07T15:54:40.623Z,99137.22
2022-08-07T15:57:27.765Z,99137.53
2022-08-07T16:00:07.801Z,99144.38
2022-08-07T16:02:46.904Z,99137.91
2022-08-07T16:05:23.262Z,99139.59
2022-08-07T16:08:33.647Z,99130.53
2022-08-07T16:11:28.675Z,99125.34
2022-08-07T16:14:48.597Z,99133.34
2022-08-07T16:18:02.315Z,99118.59
2022-08-07T16:20:43.168Z,99120.59
2022-08-07T16:23:58.309Z,99124.78
2022-08-07T16:26:30.800Z,99125.97
2022-08-07T16:30:11.777Z,99120.84
2022-08-07T16:34:02.931Z,99116.94
2022-08-07T16:37:01.573Z,99114.72
2022-08-07T16:40:28.408Z,99116.53
2022-08-07T16:43:23.767Z,99113.72
2022-08-07T16:47:06.487Z,99106.59
2022-08-07T16:50:20.622Z,99109.34
2022-08-07T16:52:57.567Z,99102.41
2022-08-07T16:56:15.434Z,99106.56
2022-08-07T16:59:21.327Z,99108.66
2022-08-07T17:02:52.287Z,99111.94
2022-08-07T17:06:19.445Z,99106.16
2022-08-07T17:09:09.070Z,99100.97
2022-08-07T17:12:35.911Z,99108.84
2022-08-07T17:15:43.812Z,99111.56
2022-08-07T17:18:46.161Z,99114.69
2022-08-07T17:21:24.489Z,99117.84
2022-08-07T17:24:14.406Z,99108.34
2022-08-07T17:27:19.739Z,99113.19
2022-08-07T17:30:15.230Z,99113.06
2022-08-07T17:34:09.143Z,99104.28
2022-08-07T17:35:55.295Z,99110.81
2022-08-07T17:38:55.461Z,99108.44
2022-08-07T17:42:01.788Z,99114.94
2022-08-07T17:44:45.235Z,99107.16
2022-08-07T17:47:43.074Z,99113.84
2022-08-07T17:50:47.197Z,99114.13
2022-08-07T17:54:13.165Z,99114.00
2022-08-07T17:57:20.899Z,99113.16
2022-08-07T17:59:56.471Z,99113.47
2022-08-07T18:02:38.873Z,99114.59
2022-08-07T18:05:28.604Z,99119.28
2022-08-07T18:08:36.344Z,99121.41
2022-08-07T18:12:06.651Z,99121.84
2022-08-07T18:14:46.398Z,99118.00
2022-08-07T18:18:47.599Z,99116.59
2022-08-07T18:21:02.657Z,99124.97
2022-08-07T18:23:58.475Z,99124.41
2022-08-07T18:26:54.183Z,99129.66
2022-08-07T18:30:06.129Z,99138.72
2022-08-07T18:33:15.974Z,99143.41
2022-08-07T18:36:14.108Z,99137.59
2022-08-07T18:40:08.615Z,99138.72
2022-08-07T18:42:42.291Z,99151.06
2022-08-07T18:45:45.075Z,99148.50
2022-08-07T18:50:31.694Z,99146.97
2022-08-07T18:52:25.516Z,99158.03
2022-08-07T18:54:51.003Z,99149.25
2022-08-07T18:57:43.360Z,99159.44
2022-08-07T19:01:00.834Z,99161.41
2022-08-07T19:03:51.926Z,99157.16
2022-08-07T19:06:37.055Z,99160.13
2022-08-07T19:09:55.487Z,99166.81
2022-08-07T19:12:58.319Z,99177.00
2022-08-07T19:16:05.527Z,99178.97
2022-08-07T19:19:00.375Z,99182.81
2022-08-07T19:21:44.223Z,99184.91
2022-08-07T19:24:43.598Z,99189.72
2022-08-07T19:28:58.313Z,99189.84
2022-08-07T19:31:03.179Z,99190.09
2022-08-07T19:33:08.234Z,99193.06
2022-08-07T19:35:43.837Z,99199.72
2022-08-07T19:38:17.183Z,99192.06
2022-08-07T19:40:51.314Z,99194.16
2022-08-07T19:43:48.889Z,99197.13
2022-08-07T19:46:19.038Z,99201.06
2022-08-07T19:49:08.703Z,99194.97
2022-08-07T19:51:53.319Z,99199.91
2022-08-07T19:54:35.070Z,99192.09
2022-08-07T19:58:03.044Z,99199.47
2022-08-07T20:00:38.568Z,99194.47
2022-08-07T20:03:35.591Z,99195.88
2022-08-07T20:06:14.322Z,99196.13
2022-08-07T20:08:50.698Z,99198.25
2022-08-07T20:11:34.314Z,99204.75
2022-08-07T20:14:13.739Z,99202.47
2022-08-07T20:16:54.376Z,99206.25
2022-08-07T20:19:28.627Z,99204.09
2022-08-07T20:22:14.391Z,99205.06
2022-08-07T20:24:51.311Z,99203.63
2022-08-07T20:27:47.787Z,99208.44
2022-08-07T20:30:13.177Z,99203.81
2022-08-07T20:32:57.501Z,99206.91
2022-08-07T20:35:54.378Z,99212.81
2022-08-07T20:38:33.248Z,99209.91
2022-08-07T20:41:05.495Z,99204.09
2022-08-07T20:43:36.467Z,99213.91
2022-08-07T20:46:28.096Z,99215.25
2022-08-07T20:49:59.231Z,99217.47
2022-08-07T20:51:50.774Z,99219.69
2022-08-07T20:54:29.717Z,99220.94
2022-08-07T21:00:04.657Z,99214.72
2022-08-07T21:02:54.349Z,99218.50
2022-08-07T21:05:54.464Z,99222.31
2022-08-07T21:08:37.520Z,99215.75
2022-08-07T21:11:14.197Z,99214.38
2022-08-07T21:14:16.239Z,99224.66
2022-08-07T21:18:00.692Z,99232.09
2022-08-07T21:19:51.706Z,99226.88
2022-08-07T21:22:31.361Z,99226.13
2022-08-07T21:25:13.167Z,99222.97
2022-08-07T21:28:01.671Z,99224.06
2022-08-07T21:30:50.329Z,99230.66
2022-08-07T21:33:29.414Z,99235.31
2022-08-07T21:36:35.725Z,99236.63
2022-08-07T21:39:51.665Z,99233.63
2022-08-07T21:42:54.866Z,99229.69
2022-08-07T21:46:09.795Z,99231.91
2022-08-07T21:48:55.806Z,99234.81
2022-08-07T21:51:57.646Z,99233.34
2022-08-07T21:54:38.491Z,99233.81
2022-08-07T21:58:02.075Z,99233.19
2022-08-07T22:00:32.365Z,99243.19
2022-08-07T22:03:31.721Z,99241.75
2022-08-07T22:06:07.666Z,99243.78
2022-08-07T22:08:59.605Z,99250.16
2022-08-07T22:11:52.900Z,99253.56
2022-08-07T22:14:23.903Z,99249.91
2022-08-07T22:17:07.211Z,99248.06
2022-08-07T22:20:08.718Z,99243.56
2022-08-07T22:23:01.642Z,99238.81
2022-08-07T22:25:50.788Z,99234.53
2022-08-07T22:28:53.290Z,99239.31
2022-08-07T22:31:55.889Z,99243.06
2022-08-07T22:35:07.908Z,99244.63
2022-08-07T22:38:03.255Z,99255.25
2022-08-07T22:41:16.393Z,99265.38
2022-08-07T22:43:51.838Z,99259.28
2022-08-07T22:47:03.344Z,99260.00
2022-08-07T22:50:33.506Z,99259.16
2022-08-07T22:54:08.788Z,99261.22
2022-08-07T22:57:16.858Z,99255.81
2022-08-07T23:00:08.618Z,99262.41
2022-08-07T23:03:09.232Z,99260.94
2022-08-07T23:06:09.777Z,99264.94
2022-08-07T23:10:04.474Z,99264.22
2022-08-07T23:13:08.070Z,99261.53
2022-08-07T23:16:46.876Z,99261.75
2022-08-07T23:19:51.725Z,99269.28
2022-08-07T23:22:55.493Z,99268.34
2022-08-07T23:26:10.069Z,99267.72
2022-08-07T23:29:43.609Z,99268.06
2022-08-07T23:34:19.766Z,99272.06
2022-08-07T23:35:58.010Z,99270.22
2022-08-07T23:38:54.940Z,99270.69
2022-08-07T23:42:23.937Z,99271.25
2022-08-07T23:45:06.756Z,99274.25
2022-08-07T23:48:32.525Z,99268.28
2022-08-07T23:52:58.764Z,99273.84
2022-08-07T23:54:36.277Z,99270.78
2022-08-07T23:57:47.435Z,99268.00
